createdAt,value
2023-02-24T00:01:42.116Z,17.20
2023-02-24T00:04:11.678Z,17.83
2023-02-24T00:06:41.690Z,22.90
2023-02-24T00:09:15.488Z,22.80
2023-02-24T00:11:44.933Z,20.93
2023-02-24T00:14:15.897Z,21.27
2023-02-24T00:16:44.497Z,16.67
2023-02-24T00:19:18.570Z,18.33
2023-02-24T00:21:45.596Z,13.70
2023-02-24T00:24:12.373Z,14.97
2023-02-24T00:26:39.361Z,14.00
2023-02-24T00:29:09.131Z,18.83
2023-02-24T00:31:39.518Z,13.03
2023-02-24T00:34:06.330Z,16.77
2023-02-24T00:36:33.989Z,16.30
2023-02-24T00:39:09.440Z,16.67
2023-02-24T00:41:40.188Z,14.73
2023-02-24T00:44:09.616Z,15.43
2023-02-24T00:46:39.476Z,16.73
2023-02-24T00:49:12.556Z,18.00
2023-02-24T00:51:41.385Z,14.00
2023-02-24T00:54:10.202Z,18.50
2023-02-24T00:56:36.945Z,19.77
2023-02-24T00:59:03.494Z,16.03
2023-02-24T01:01:32.345Z,17.70
2023-02-24T01:04:01.569Z,18.60
2023-02-24T01:06:29.409Z,18.17
2023-02-24T01:08:57.724Z,24.53
2023-02-24T01:11:45.954Z,16.93
2023-02-24T01:14:16.286Z,15.00
2023-02-24T01:16:50.451Z,16.63
2023-02-24T01:19:31.554Z,16.10
2023-02-24T01:21:59.101Z,18.73
2023-02-24T01:24:25.817Z,17.27
2023-02-24T01:26:53.065Z,17.77
2023-02-24T01:29:19.625Z,15.40
2023-02-24T01:31:48.692Z,18.13
2023-02-24T01:34:16.982Z,18.53
2023-02-24T01:36:44.991Z,14.77
2023-02-24T01:39:13.513Z,18.17
2023-02-24T01:41:46.166Z,15.63
2023-02-24T01:44:13.914Z,14.20
2023-02-24T01:46:43.220Z,19.57
2023-02-24T01:49:12.645Z,14.13
2023-02-24T01:51:47.240Z,15.73
2023-02-24T01:54:17.144Z,13.27
2023-02-24T01:56:47.305Z,13.77
2023-02-24T01:59:15.956Z,13.67
2023-02-24T02:01:45.923Z,15.77
2023-02-24T02:04:17.776Z,13.53
2023-02-24T02:06:46.595Z,17.13
2023-02-24T02:09:15.332Z,16.10
2023-02-24T02:11:42.911Z,14.27
2023-02-24T02:14:10.418Z,15.73
2023-02-24T02:16:52.151Z,14.27
2023-02-24T02:19:40.009Z,15.67
2023-02-24T02:22:45.097Z,16.67
2023-02-24T02:25:25.636Z,17.63
2023-02-24T02:28:15.293Z,14.97
2023-02-24T02:30:55.343Z,16.57
2023-02-24T02:33:49.717Z,19.90
2023-02-24T02:36:36.405Z,16.20
2023-02-24T02:39:21.760Z,17.70
2023-02-24T02:42:02.040Z,16.47
2023-02-24T02:44:44.866Z,18.07
2023-02-24T02:47:14.500Z,17.07
2023-02-24T02:49:47.933Z,16.03
2023-02-24T02:52:24.547Z,19.17
2023-02-24T02:55:03.600Z,17.37
2023-02-24T02:57:31.842Z,19.70
2023-02-24T03:00:13.603Z,15.97
2023-02-24T03:02:44.944Z,19.00
2023-02-24T03:05:17.490Z,15.43
2023-02-24T03:07:49.384Z,17.07
2023-02-24T03:10:22.509Z,19.40
2023-02-24T03:12:55.311Z,15.53
2023-02-24T03:15:26.047Z,17.63
2023-02-24T03:17:58.178Z,19.13
2023-02-24T03:20:33.408Z,17.53
2023-02-24T03:23:11.285Z,19.63
2023-02-24T03:26:03.043Z,18.93
2023-02-24T03:28:37.428Z,18.60
2023-02-24T03:31:23.801Z,17.43
2023-02-24T03:34:06.748Z,19.73
2023-02-24T03:36:33.433Z,15.47
2023-02-24T03:39:02.047Z,14.37
2023-02-24T03:41:38.201Z,16.87
2023-02-24T03:44:07.557Z,13.57
2023-02-24T03:46:34.894Z,20.77
2023-02-24T03:49:16.366Z,19.67
2023-02-24T03:51:57.020Z,17.57
2023-02-24T03:54:59.091Z,16.57
2023-02-24T03:57:59.875Z,20.63
2023-02-24T04:00:41.313Z,16.97
2023-02-24T04:03:18.894Z,14.20
2023-02-24T04:06:06.126Z,15.07
2023-02-24T04:08:39.140Z,22.37
2023-02-24T04:11:25.072Z,15.63
2023-02-24T04:13:59.540Z,16.33
2023-02-24T04:16:36.591Z,20.33
2023-02-24T04:19:09.639Z,20.10
2023-02-24T04:21:38.941Z,18.33
2023-02-24T04:24:11.565Z,21.57
2023-02-24T04:26:42.602Z,17.73
2023-02-24T04:29:17.396Z,18.27
2023-02-24T04:31:53.214Z,22.97
2023-02-24T04:34:20.266Z,19.47
2023-02-24T04:36:49.525Z,21.40
2023-02-24T04:39:20.876Z,19.83
2023-02-24T04:41:49.357Z,18.40
2023-02-24T04:44:21.022Z,25.43
2023-02-24T04:46:51.658Z,18.80
2023-02-24T04:49:19.512Z,22.43
2023-02-24T04:51:46.647Z,23.93
2023-02-24T04:54:17.280Z,21.33
2023-02-24T04:56:47.994Z,20.57
2023-02-24T04:59:15.161Z,20.43
2023-02-24T05:01:44.013Z,25.20
2023-02-24T05:04:12.863Z,23.63
2023-02-24T05:06:43.956Z,25.73
2023-02-24T05:09:16.993Z,18.83
2023-02-24T05:11:48.998Z,27.30
2023-02-24T05:14:18.418Z,28.70
2023-02-24T05:16:47.322Z,21.87
2023-02-24T05:19:34.800Z,19.73
2023-02-24T05:22:05.227Z,24.60
2023-02-24T05:24:31.839Z,30.20
2023-02-24T05:27:03.714Z,26.47
2023-02-24T05:29:33.160Z,27.17
2023-02-24T05:32:00.356Z,23.90
2023-02-24T05:34:30.503Z,30.13
2023-02-24T05:36:58.953Z,29.50
2023-02-24T05:39:28.312Z,31.87
2023-02-24T05:41:57.239Z,24.27
2023-02-24T05:44:26.226Z,28.07
2023-02-24T05:46:58.217Z,29.13
2023-02-24T05:49:29.364Z,29.73
2023-02-24T05:51:57.836Z,27.90
2023-02-24T05:54:30.523Z,28.80
2023-02-24T05:57:05.612Z,28.30
2023-02-24T05:59:33.477Z,23.90
2023-02-24T06:02:06.838Z,25.47
2023-02-24T06:04:45.585Z,25.37
2023-02-24T06:07:18.936Z,25.97
2023-02-24T06:09:53.843Z,24.57
2023-02-24T06:12:22.504Z,29.23
2023-02-24T06:14:49.116Z,27.33
2023-02-24T06:17:19.533Z,26.77
2023-02-24T06:19:49.339Z,26.33
2023-02-24T06:22:22.528Z,24.70
2023-02-24T06:24:49.483Z,28.47
2023-02-24T06:27:18.639Z,32.97
2023-02-24T06:29:49.927Z,33.17
2023-02-24T06:32:21.828Z,29.57
2023-02-24T06:34:48.299Z,39.57
2023-02-24T06:37:15.727Z,30.03
2023-02-24T06:39:43.320Z,30.17
2023-02-24T06:42:11.755Z,31.90
2023-02-24T06:44:40.011Z,31.20
2023-02-24T06:47:07.767Z,35.40
2023-02-24T06:49:34.659Z,31.30
2023-02-24T06:52:01.451Z,31.20
2023-02-24T06:54:30.774Z,28.57
2023-02-24T06:56:58.934Z,33.47
2023-02-24T06:59:28.581Z,36.20
2023-02-24T07:01:56.310Z,27.40
2023-02-24T07:04:27.738Z,32.60
2023-02-24T07:07:03.209Z,40.60
2023-02-24T07:09:31.984Z,39.37
2023-02-24T07:12:02.488Z,39.27
2023-02-24T07:14:32.077Z,35.17
2023-02-24T07:16:59.840Z,38.13
2023-02-24T07:19:29.564Z,37.37
2023-02-24T07:22:02.092Z,35.03
2023-02-24T07:24:35.974Z,43.23
2023-02-24T07:27:09.376Z,32.83
2023-02-24T07:29:37.560Z,37.83
2023-02-24T07:32:06.761Z,35.80
2023-02-24T07:34:34.153Z,34.20
2023-02-24T07:37:06.516Z,34.27
2023-02-24T07:39:33.180Z,32.03
2023-02-24T07:41:59.585Z,36.37
2023-02-24T07:44:26.249Z,37.80
2023-02-24T07:46:52.712Z,32.97
2023-02-24T07:49:21.517Z,32.87
2023-02-24T07:51:52.520Z,27.70
2023-02-24T07:54:21.318Z,31.20
2023-02-24T07:56:56.420Z,32.00
2023-02-24T07:59:32.617Z,32.57
2023-02-24T08:02:00.590Z,39.13
2023-02-24T08:04:30.024Z,39.80
2023-02-24T08:06:58.801Z,36.80
2023-02-24T08:09:46.104Z,35.43
2023-02-24T08:12:18.208Z,34.20
2023-02-24T08:14:50.635Z,38.90
2023-02-24T08:17:20.002Z,33.37
2023-02-24T08:19:50.787Z,35.93
2023-02-24T08:22:20.660Z,38.47
2023-02-24T08:25:00.642Z,31.63
2023-02-24T08:27:31.943Z,36.70
2023-02-24T08:30:02.388Z,32.13
2023-02-24T08:32:37.034Z,38.33
2023-02-24T08:35:05.590Z,45.40
2023-02-24T08:37:40.007Z,36.00
2023-02-24T08:40:50.045Z,33.73
2023-02-24T08:43:32.600Z,30.37
2023-02-24T08:46:19.366Z,35.33
2023-02-24T08:48:55.354Z,42.33
2023-02-24T08:51:36.155Z,35.90
2023-02-24T08:54:10.809Z,38.97
2023-02-24T08:56:43.228Z,31.37
2023-02-24T08:59:29.074Z,37.90
2023-02-24T09:02:17.397Z,32.90
2023-02-24T09:04:51.272Z,34.53
2023-02-24T09:07:30.255Z,42.87
2023-02-24T09:09:56.887Z,38.07
2023-02-24T09:12:25.961Z,40.63
2023-02-24T09:14:58.252Z,39.33
2023-02-24T09:17:50.139Z,33.47
2023-02-24T09:20:25.813Z,32.27
2023-02-24T09:22:57.864Z,35.17
2023-02-24T09:25:40.325Z,27.63
2023-02-24T09:28:19.042Z,28.17
2023-02-24T09:30:51.243Z,33.20
2023-02-24T09:33:22.442Z,36.47
2023-02-24T09:36:03.018Z,30.67
2023-02-24T09:38:48.883Z,34.77
2023-02-24T09:41:33.023Z,32.07
2023-02-24T09:44:07.698Z,38.60
2023-02-24T09:46:40.887Z,29.20
2023-02-24T09:49:15.525Z,32.53
2023-02-24T09:51:44.990Z,35.43
2023-02-24T09:54:18.293Z,35.00
2023-02-24T09:57:08.816Z,28.53
2023-02-24T09:59:35.190Z,33.50
2023-02-24T10:02:04.319Z,30.13
2023-02-24T10:04:53.980Z,31.83
2023-02-24T10:07:38.455Z,32.60
2023-02-24T10:10:35.747Z,25.17
2023-02-24T10:13:17.220Z,30.20
2023-02-24T10:15:57.628Z,27.67
2023-02-24T10:18:37.591Z,30.87
2023-02-24T10:21:16.017Z,28.00
2023-02-24T10:23:56.510Z,27.17
2023-02-24T10:26:51.307Z,20.47
2023-02-24T10:29:43.122Z,19.23
2023-02-24T10:32:33.851Z,22.90
2023-02-24T10:35:01.669Z,24.40
2023-02-24T10:37:29.697Z,23.53
2023-02-24T10:40:09.485Z,20.90
2023-02-24T10:42:44.408Z,14.97
2023-02-24T10:45:18.303Z,19.23
2023-02-24T10:47:56.696Z,22.70
2023-02-24T10:50:55.051Z,27.60
2023-02-24T10:53:28.438Z,15.27
2023-02-24T10:56:17.097Z,39.87
2023-02-24T10:59:09.748Z,26.33
2023-02-24T11:01:58.889Z,38.97
2023-02-24T11:05:04.338Z,37.17
2023-02-24T11:07:54.812Z,38.80
2023-02-24T11:10:26.645Z,33.70
2023-02-24T11:13:14.321Z,41.60
2023-02-24T11:16:07.158Z,28.20
2023-02-24T11:18:33.922Z,32.37
2023-02-24T11:21:03.694Z,33.03
2023-02-24T11:23:44.000Z,41.03
2023-02-24T11:26:26.992Z,34.10
2023-02-24T11:28:53.317Z,41.10
2023-02-24T11:31:33.712Z,32.83
2023-02-24T11:34:21.444Z,36.37
2023-02-24T11:37:06.731Z,42.53
2023-02-24T11:39:58.095Z,36.13
2023-02-24T11:42:52.154Z,26.63
2023-02-24T11:45:43.476Z,35.60
2023-02-24T11:48:19.612Z,33.90
2023-02-24T11:50:51.812Z,34.10
2023-02-24T11:53:24.420Z,36.00
2023-02-24T11:56:22.114Z,36.97
2023-02-24T11:58:48.452Z,36.60
2023-02-24T12:01:24.418Z,36.00
2023-02-24T12:04:11.338Z,36.83
2023-02-24T12:06:50.901Z,31.87
2023-02-24T12:09:21.429Z,43.90
2023-02-24T12:12:01.010Z,49.53
2023-02-24T12:14:33.577Z,38.67
2023-02-24T12:17:18.141Z,36.67
2023-02-24T12:19:59.859Z,36.07
2023-02-24T12:22:34.658Z,39.47
2023-02-24T12:25:01.185Z,36.47
2023-02-24T12:27:42.897Z,31.67
2023-02-24T12:30:48.848Z,34.13
2023-02-24T12:33:18.885Z,34.87
2023-02-24T12:35:54.215Z,35.53
2023-02-24T12:38:41.273Z,36.97
2023-02-24T12:41:37.241Z,36.10
2023-02-24T12:44:33.977Z,40.13
2023-02-24T12:47:06.785Z,29.93
2023-02-24T12:49:45.128Z,33.07
2023-02-24T12:53:13.316Z,33.60
2023-02-24T12:56:18.985Z,34.33
2023-02-24T12:58:49.211Z,37.40
2023-02-24T13:01:18.629Z,32.67
2023-02-24T13:04:07.103Z,40.20
2023-02-24T13:06:45.429Z,31.30
2023-02-24T13:09:23.949Z,31.63
2023-02-24T13:12:05.462Z,34.23
2023-02-24T13:14:35.844Z,29.00
2023-02-24T13:17:11.295Z,35.30
2023-02-24T13:19:40.072Z,29.43
2023-02-24T13:22:19.458Z,25.00
2023-02-24T13:24:59.130Z,33.17
2023-02-24T13:27:31.975Z,22.20
2023-02-24T13:30:03.943Z,27.57
2023-02-24T13:32:38.600Z,37.83
2023-02-24T13:35:07.098Z,26.50
2023-02-24T13:37:36.713Z,13.00
2023-02-24T13:40:18.209Z,30.20
2023-02-24T13:43:05.304Z,32.23
2023-02-24T13:45:36.568Z,30.43
2023-02-24T13:48:40.557Z,30.27
2023-02-24T13:51:22.516Z,27.07
2023-02-24T13:54:29.202Z,25.70
2023-02-24T13:57:10.153Z,27.73
2023-02-24T13:59:57.874Z,38.30
2023-02-24T14:02:30.130Z,29.73
2023-02-24T14:05:00.092Z,23.70
2023-02-24T14:07:31.741Z,26.60
2023-02-24T14:10:02.408Z,27.40
2023-02-24T14:12:32.279Z,31.43
2023-02-24T14:14:59.544Z,23.83
2023-02-24T14:17:35.783Z,29.80
2023-02-24T14:20:09.400Z,30.23
2023-02-24T14:22:43.541Z,28.03
2023-02-24T14:25:11.193Z,23.00
2023-02-24T14:27:38.941Z,26.20
2023-02-24T14:30:07.669Z,26.27
2023-02-24T14:32:34.677Z,22.77
2023-02-24T14:35:02.491Z,28.50
2023-02-24T14:37:31.659Z,24.93
2023-02-24T14:40:00.198Z,21.73
2023-02-24T14:42:28.125Z,17.20
2023-02-24T14:44:57.353Z,23.13
2023-02-24T14:47:26.249Z,26.00
2023-02-24T14:50:04.852Z,18.33
2023-02-24T14:53:03.532Z,24.17
2023-02-24T14:55:34.704Z,19.83
2023-02-24T14:58:15.810Z,25.37
2023-02-24T15:00:52.994Z,20.97
2023-02-24T15:03:38.654Z,22.00
2023-02-24T15:06:12.329Z,20.60
2023-02-24T15:08:42.706Z,23.07
2023-02-24T15:11:14.963Z,13.07
2023-02-24T15:14:11.584Z,23.40
2023-02-24T15:16:47.078Z,21.97
2023-02-24T15:19:34.226Z,17.87
2023-02-24T15:22:00.669Z,20.80
2023-02-24T15:24:33.378Z,19.97
2023-02-24T15:27:20.560Z,25.53
2023-02-24T15:30:00.636Z,19.10
2023-02-24T15:32:29.800Z,15.93
2023-02-24T15:34:56.540Z,21.50
2023-02-24T15:37:30.504Z,15.90
2023-02-24T15:40:04.423Z,17.20
2023-02-24T15:42:33.824Z,20.37
2023-02-24T15:45:22.884Z,16.73
2023-02-24T15:47:54.404Z,20.80
2023-02-24T15:50:21.399Z,15.43
2023-02-24T15:52:48.281Z,13.00
2023-02-24T15:55:16.711Z,16.43
2023-02-24T15:57:43.574Z,18.27
2023-02-24T16:00:15.424Z,22.80
2023-02-24T16:02:42.015Z,17.87
2023-02-24T16:05:15.946Z,16.87
2023-02-24T16:07:45.018Z,14.03
2023-02-24T16:10:17.734Z,13.17
2023-02-24T16:12:49.375Z,13.77
2023-02-24T16:15:22.285Z,16.27
2023-02-24T16:17:49.726Z,20.37
2023-02-24T16:20:27.986Z,21.87
2023-02-24T16:22:56.287Z,13.17
2023-02-24T16:25:23.871Z,16.40
2023-02-24T16:27:50.906Z,22.37
2023-02-24T16:30:22.426Z,15.10
2023-02-24T16:32:49.456Z,14.20
2023-02-24T16:35:16.359Z,16.10
2023-02-24T16:37:46.334Z,17.93
2023-02-24T16:40:25.508Z,13.27
2023-02-24T16:42:52.846Z,21.03
2023-02-24T16:45:21.046Z,13.40
2023-02-24T16:47:49.204Z,16.50
2023-02-24T16:50:22.904Z,22.93
2023-02-24T16:52:49.823Z,14.30
2023-02-24T16:55:17.195Z,19.27
2023-02-24T16:57:44.050Z,15.00
2023-02-24T17:00:13.276Z,20.90
2023-02-24T17:02:42.027Z,17.77
2023-02-24T17:05:16.536Z,13.40
2023-02-24T17:07:43.137Z,16.57
2023-02-24T17:10:10.231Z,16.53
2023-02-24T17:12:36.671Z,22.37
2023-02-24T17:15:03.761Z,23.03
2023-02-24T17:17:30.183Z,13.53
2023-02-24T17:19:56.675Z,14.20
2023-02-24T17:22:23.253Z,10.80
2023-02-24T17:24:49.953Z,14.87
2023-02-24T17:27:16.324Z,15.87
2023-02-24T17:29:42.769Z,11.67
2023-02-24T17:32:09.428Z,16.97
2023-02-24T17:34:36.023Z,16.93
2023-02-24T17:37:02.889Z,16.67
2023-02-24T17:39:29.392Z,14.30
2023-02-24T17:41:55.790Z,14.30
2023-02-24T17:44:22.515Z,15.47
2023-02-24T17:46:49.042Z,14.10
2023-02-24T17:49:15.536Z,12.60
2023-02-24T17:51:42.047Z,13.00
2023-02-24T17:54:08.514Z,13.77
2023-02-24T17:56:35.002Z,12.63
2023-02-24T17:59:02.645Z,10.80
2023-02-24T18:01:29.215Z,7.87
2023-02-24T18:03:58.742Z,13.93
2023-02-24T18:06:25.274Z,9.67
2023-02-24T18:08:51.786Z,7.17
2023-02-24T18:11:20.134Z,7.97
2023-02-24T18:13:50.792Z,7.70
2023-02-24T18:16:17.460Z,10.47
2023-02-24T18:18:45.467Z,11.87
2023-02-24T18:21:12.083Z,7.93
2023-02-24T18:23:40.415Z,6.23
2023-02-24T18:26:09.161Z,6.63
2023-02-24T18:28:36.059Z,4.60
2023-02-24T18:31:10.317Z,6.70
2023-02-24T18:33:36.939Z,5.50
2023-02-24T18:36:04.178Z,6.00
2023-02-24T18:38:30.589Z,9.07
2023-02-24T18:40:59.017Z,5.87
2023-02-24T18:43:25.470Z,7.13
2023-02-24T18:45:59.381Z,8.00
2023-02-24T18:48:26.778Z,6.17
2023-02-24T18:50:54.364Z,7.40
2023-02-24T18:53:22.433Z,8.13
2023-02-24T18:55:49.109Z,10.57
2023-02-24T18:58:15.960Z,8.23
2023-02-24T19:00:45.102Z,8.73
2023-02-24T19:03:11.686Z,14.87
2023-02-24T19:05:39.104Z,12.57
2023-02-24T19:08:05.852Z,13.00
2023-02-24T19:10:32.263Z,11.57
2023-02-24T19:12:58.764Z,10.70
2023-02-24T19:15:27.697Z,14.27
2023-02-24T19:17:54.279Z,18.17
2023-02-24T19:20:21.046Z,10.63
2023-02-24T19:22:49.223Z,11.33
2023-02-24T19:25:16.923Z,17.30
2023-02-24T19:27:43.375Z,11.80
2023-02-24T19:30:10.622Z,20.23
2023-02-24T19:32:37.217Z,13.77
2023-02-24T19:35:03.927Z,11.83
2023-02-24T19:37:30.330Z,16.90
2023-02-24T19:39:56.765Z,10.20
2023-02-24T19:42:23.193Z,10.47
2023-02-24T19:44:50.470Z,13.53
2023-02-24T19:47:17.533Z,12.83
2023-02-24T19:49:44.513Z,16.27
2023-02-24T19:52:11.113Z,15.00
2023-02-24T19:54:37.564Z,11.23
2023-02-24T19:57:04.131Z,13.10
2023-02-24T19:59:30.567Z,12.80
2023-02-24T20:01:57.056Z,15.13
2023-02-24T20:04:25.265Z,12.43
2023-02-24T20:06:52.045Z,18.97
2023-02-24T20:09:21.294Z,16.20
2023-02-24T20:11:50.064Z,15.63
2023-02-24T20:14:19.686Z,13.23
2023-02-24T20:16:47.136Z,12.70
2023-02-24T20:19:14.807Z,10.00
2023-02-24T20:21:41.398Z,17.23
2023-02-24T20:24:13.597Z,16.80
2023-02-24T20:26:42.250Z,18.03
2023-02-24T20:29:09.433Z,13.37
2023-02-24T20:31:36.175Z,17.53
2023-02-24T20:34:04.699Z,16.97
2023-02-24T20:36:32.266Z,16.57
2023-02-24T20:38:59.282Z,14.50
2023-02-24T20:41:26.615Z,14.80
2023-02-24T20:43:54.609Z,20.23
2023-02-24T20:46:27.353Z,13.50
2023-02-24T20:49:02.621Z,13.97
2023-02-24T20:51:30.729Z,14.57
2023-02-24T20:53:58.712Z,13.87
2023-02-24T20:56:32.908Z,15.80
2023-02-24T20:59:05.879Z,13.97
2023-02-24T21:01:33.498Z,12.77
2023-02-24T21:04:00.891Z,15.97
2023-02-24T21:06:28.285Z,12.73
2023-02-24T21:08:55.446Z,8.47
2023-02-24T21:11:22.275Z,7.73
2023-02-24T21:13:51.314Z,7.23
2023-02-24T21:16:19.631Z,4.60
2023-02-24T21:18:48.175Z,3.20
2023-02-24T21:21:15.504Z,4.77
2023-02-24T21:23:43.525Z,3.83
2023-02-24T21:26:11.096Z,1.93
2023-02-24T21:28:38.275Z,2.83
2023-02-24T21:31:10.316Z,2.13
2023-02-24T21:33:37.456Z,0.90
2023-02-24T21:36:06.684Z,1.83
2023-02-24T21:38:34.388Z,1.40
2023-02-24T21:41:02.528Z,2.13
2023-02-24T21:43:29.477Z,1.97
2023-02-24T21:45:55.984Z,1.70
2023-02-24T21:48:22.464Z,2.37
2023-02-24T21:51:03.720Z,1.10
2023-02-24T21:53:35.340Z,2.27
2023-02-24T21:56:03.851Z,1.97
2023-02-24T21:58:31.781Z,3.30
2023-02-24T22:00:58.528Z,1.70
2023-02-24T22:03:25.158Z,4.70
2023-02-24T22:05:53.517Z,3.23
2023-02-24T22:08:20.050Z,2.13
2023-02-24T22:10:47.314Z,1.70
2023-02-24T22:13:13.793Z,2.07
2023-02-24T22:15:41.228Z,2.73
2023-02-24T22:18:07.710Z,2.30
2023-02-24T22:20:34.109Z,2.67
2023-02-24T22:23:00.749Z,9.60
2023-02-24T22:25:27.201Z,7.40
2023-02-24T22:27:53.772Z,3.57
2023-02-24T22:30:20.189Z,3.60
2023-02-24T22:32:46.746Z,2.90
2023-02-24T22:35:13.214Z,4.43
2023-02-24T22:37:39.922Z,1.67
2023-02-24T22:40:07.001Z,4.07
2023-02-24T22:42:33.430Z,11.20
2023-02-24T22:45:00.310Z,3.97
2023-02-24T22:47:26.910Z,3.67
2023-02-24T22:49:53.618Z,3.43
2023-02-24T22:52:20.293Z,1.80
2023-02-24T22:54:46.733Z,3.80
2023-02-24T22:57:13.140Z,3.57
2023-02-24T22:59:39.571Z,2.30
2023-02-24T23:02:05.985Z,2.27
2023-02-24T23:04:34.226Z,2.67
2023-02-24T23:07:01.242Z,5.27
2023-02-24T23:09:28.066Z,3.23
2023-02-24T23:11:54.531Z,2.10
2023-02-24T23:14:20.938Z,3.97
2023-02-24T23:16:53.644Z,4.13
2023-02-24T23:19:20.757Z,4.93
2023-02-24T23:21:50.169Z,2.37
2023-02-24T23:24:18.089Z,5.70
2023-02-24T23:26:51.269Z,2.60
2023-02-24T23:29:18.913Z,8.20
2023-02-24T23:31:45.999Z,6.27
2023-02-24T23:34:13.113Z,2.37
2023-02-24T23:36:41.456Z,4.17
2023-02-24T23:39:09.090Z,3.37
2023-02-24T23:41:37.707Z,3.57
2023-02-24T23:44:05.144Z,6.43
2023-02-24T23:46:32.747Z,5.43
2023-02-24T23:48:59.295Z,5.37
2023-02-24T23:51:27.968Z,4.40
2023-02-24T23:53:57.882Z,3.13
2023-02-24T23:56:26.642Z,3.00
2023-02-24T23:58:56.543Z,2.67
